createdAt,value
2023-08-26T00:00:46.897Z,15.00
2023-08-26T00:03:15.620Z,14.15
2023-08-26T00:05:44.650Z,15.38
2023-08-26T00:08:12.598Z,11.85
2023-08-26T00:10:40.879Z,11.85
2023-08-26T00:13:08.804Z,10.88
2023-08-26T00:15:36.818Z,11.82
2023-08-26T00:18:10.387Z,11.40
2023-08-26T00:20:39.642Z,12.90
2023-08-26T00:23:08.106Z,18.73
2023-08-26T00:25:36.085Z,10.27
2023-08-26T00:28:04.563Z,14.77
2023-08-26T00:30:32.907Z,13.13
2023-08-26T00:33:01.028Z,21.40
2023-08-26T00:35:29.073Z,16.12
2023-08-26T00:37:57.823Z,11.52
2023-08-26T00:40:26.101Z,14.35
2023-08-26T00:42:56.320Z,14.00
2023-08-26T00:45:24.670Z,12.07
2023-08-26T00:47:52.891Z,15.77
2023-08-26T00:50:21.918Z,37.65
2023-08-26T00:52:50.246Z,23.35
2023-08-26T00:55:18.528Z,22.77
2023-08-26T00:57:46.849Z,27.15
2023-08-26T01:00:15.842Z,24.83
2023-08-26T01:02:44.245Z,16.50
2023-08-26T01:05:12.316Z,19.60
2023-08-26T01:07:41.172Z,12.60
2023-08-26T01:10:09.873Z,34.60
2023-08-26T01:13:01.198Z,31.48
2023-08-26T01:15:32.378Z,15.95
2023-08-26T01:18:07.121Z,17.08
2023-08-26T01:20:36.605Z,17.60
2023-08-26T01:23:07.645Z,22.62
2023-08-26T01:25:36.017Z,14.60
2023-08-26T01:28:04.028Z,12.02
2023-08-26T01:30:32.834Z,12.23
2023-08-26T01:33:22.844Z,16.33
2023-08-26T01:35:58.763Z,11.00
2023-08-26T01:38:28.306Z,12.68
2023-08-26T01:40:57.661Z,19.40
2023-08-26T01:43:26.732Z,14.35
2023-08-26T01:45:55.031Z,21.58
2023-08-26T01:48:23.049Z,15.25
2023-08-26T01:50:50.961Z,24.77
2023-08-26T01:53:19.741Z,21.30
2023-08-26T01:55:47.743Z,38.67
2023-08-26T01:58:15.971Z,26.20
2023-08-26T02:00:44.415Z,21.08
2023-08-26T02:03:12.889Z,16.17
2023-08-26T02:05:40.693Z,13.60
2023-08-26T02:08:09.262Z,18.70
2023-08-26T02:10:37.456Z,20.27
2023-08-26T02:13:05.387Z,13.40
2023-08-26T02:15:35.960Z,8.73
2023-08-26T02:18:04.655Z,7.82
2023-08-26T02:20:32.606Z,7.97
2023-08-26T02:23:00.507Z,8.43
2023-08-26T02:25:30.044Z,7.55
2023-08-26T02:27:58.359Z,9.45
2023-08-26T02:30:26.653Z,10.65
2023-08-26T02:32:56.160Z,12.48
2023-08-26T02:35:24.571Z,8.88
2023-08-26T02:37:52.479Z,10.30
2023-08-26T02:40:20.803Z,13.65
2023-08-26T02:42:48.730Z,17.27
2023-08-26T02:45:16.697Z,11.70
2023-08-26T02:47:47.679Z,11.12
2023-08-26T02:50:18.092Z,8.45
2023-08-26T02:52:46.489Z,11.45
2023-08-26T02:55:14.450Z,9.80
2023-08-26T02:57:42.480Z,15.35
2023-08-26T03:00:11.526Z,12.93
2023-08-26T03:02:39.868Z,35.00
2023-08-26T03:05:09.263Z,13.18
2023-08-26T03:07:37.765Z,11.70
2023-08-26T03:10:06.310Z,29.83
2023-08-26T03:12:34.895Z,30.02
2023-08-26T03:15:04.029Z,21.80
2023-08-26T03:17:32.787Z,12.35
2023-08-26T03:20:00.939Z,9.60
2023-08-26T03:22:35.870Z,9.93
2023-08-26T03:25:09.221Z,8.48
2023-08-26T03:27:46.942Z,9.30
2023-08-26T03:30:15.016Z,8.27
2023-08-26T03:32:43.344Z,7.97
2023-08-26T03:35:11.329Z,8.32
2023-08-26T03:37:39.307Z,8.13
2023-08-26T03:40:10.410Z,6.10
2023-08-26T03:42:49.924Z,10.80
2023-08-26T03:48:11.728Z,5.70
2023-08-26T03:50:50.993Z,8.40
2023-08-26T03:53:24.724Z,7.37
2023-08-26T03:55:53.089Z,7.15
2023-08-26T03:58:21.036Z,5.93
2023-08-26T04:00:49.561Z,7.60
2023-08-26T04:03:17.987Z,9.98
2023-08-26T04:05:46.363Z,6.78
2023-08-26T04:08:14.277Z,7.68
2023-08-26T04:10:42.234Z,7.78
2023-08-26T04:13:22.060Z,9.23
2023-08-26T04:15:50.093Z,8.38
2023-08-26T04:18:18.209Z,9.90
2023-08-26T04:20:46.161Z,6.75
2023-08-26T04:23:13.973Z,8.98
2023-08-26T04:25:43.017Z,7.90
2023-08-26T04:28:13.277Z,5.37
2023-08-26T04:30:42.057Z,6.78
2023-08-26T04:33:10.642Z,7.03
2023-08-26T04:35:38.826Z,8.65
2023-08-26T04:38:06.789Z,5.00
2023-08-26T04:40:35.716Z,8.15
2023-08-26T04:43:05.198Z,8.05
2023-08-26T04:45:33.077Z,5.10
2023-08-26T04:48:01.514Z,5.03
2023-08-26T04:50:30.558Z,7.65
2023-08-26T04:52:58.996Z,5.32
2023-08-26T04:55:27.304Z,7.22
2023-08-26T04:57:55.442Z,8.38
2023-08-26T05:00:24.026Z,6.68
2023-08-26T05:02:52.606Z,8.63
2023-08-26T05:05:21.055Z,6.60
2023-08-26T05:07:49.185Z,8.48
2023-08-26T05:10:17.358Z,5.82
2023-08-26T05:12:45.237Z,4.72
2023-08-26T05:15:13.322Z,6.15
2023-08-26T05:17:42.475Z,6.53
2023-08-26T05:20:10.784Z,8.50
2023-08-26T05:22:50.978Z,7.95
2023-08-26T05:25:20.362Z,6.95
2023-08-26T05:27:49.468Z,4.70
2023-08-26T05:30:19.594Z,3.97
2023-08-26T05:32:49.331Z,7.43
2023-08-26T05:35:17.411Z,5.10
2023-08-26T05:37:46.680Z,9.70
2023-08-26T05:40:16.218Z,5.80
2023-08-26T05:42:44.178Z,5.22
2023-08-26T05:45:12.062Z,7.22
2023-08-26T05:47:40.484Z,7.93
2023-08-26T05:50:08.785Z,5.30
2023-08-26T05:52:36.705Z,7.47
2023-08-26T05:55:05.268Z,4.50
2023-08-26T05:57:33.261Z,4.68
2023-08-26T06:00:01.577Z,6.03
2023-08-26T06:02:33.819Z,5.60
2023-08-26T06:05:03.667Z,7.72
2023-08-26T06:07:31.730Z,5.32
2023-08-26T06:09:59.782Z,6.75
2023-08-26T06:12:28.136Z,4.85
2023-08-26T06:14:56.680Z,5.03
2023-08-26T06:17:24.670Z,7.20
2023-08-26T06:19:53.190Z,6.07
2023-08-26T06:22:21.388Z,7.68
2023-08-26T06:24:49.292Z,4.40
2023-08-26T06:27:17.776Z,4.50
2023-08-26T06:29:56.879Z,4.15
2023-08-26T06:32:25.527Z,5.62
2023-08-26T06:34:54.793Z,3.53
2023-08-26T06:37:22.818Z,3.37
2023-08-26T06:39:51.536Z,7.97
2023-08-26T06:42:19.734Z,6.43
2023-08-26T06:44:52.747Z,4.47
2023-08-26T06:47:22.114Z,3.97
2023-08-26T06:49:50.599Z,5.50
2023-08-26T06:52:18.520Z,5.32
2023-08-26T06:54:47.059Z,4.28
2023-08-26T06:57:15.045Z,5.20
2023-08-26T07:02:32.095Z,4.93
2023-08-26T07:05:00.209Z,5.15
2023-08-26T07:07:28.792Z,4.70
2023-08-26T07:09:56.856Z,9.60
2023-08-26T07:12:24.827Z,3.85
2023-08-26T07:14:53.419Z,4.97
2023-08-26T07:17:21.448Z,5.28
2023-08-26T07:19:49.442Z,3.67
2023-08-26T07:22:20.339Z,5.37
2023-08-26T07:24:55.330Z,4.32
2023-08-26T07:27:24.818Z,3.25
2023-08-26T07:29:52.849Z,3.60
2023-08-26T07:32:20.985Z,4.10
2023-08-26T07:34:52.634Z,3.55
2023-08-26T07:37:20.537Z,3.25
2023-08-26T07:39:51.150Z,4.50
2023-08-26T07:42:19.565Z,3.08
2023-08-26T07:44:47.869Z,3.75
2023-08-26T07:50:02.065Z,3.85
2023-08-26T07:52:31.539Z,3.75
2023-08-26T07:54:59.431Z,3.90
2023-08-26T07:57:27.778Z,5.07
2023-08-26T07:59:55.648Z,3.92
2023-08-26T08:02:23.946Z,4.57
2023-08-26T08:04:52.614Z,3.60
2023-08-26T08:07:23.349Z,3.15
2023-08-26T08:09:51.445Z,3.92
2023-08-26T08:12:19.951Z,4.75
2023-08-26T08:14:47.967Z,3.60
2023-08-26T08:17:15.927Z,4.62
2023-08-26T08:19:47.165Z,4.05
2023-08-26T08:22:19.962Z,3.47
2023-08-26T08:24:49.244Z,3.15
2023-08-26T08:27:17.425Z,4.95
2023-08-26T08:29:46.307Z,2.95
2023-08-26T08:32:14.696Z,5.47
2023-08-26T08:34:42.861Z,4.37
2023-08-26T08:37:10.977Z,4.93
2023-08-26T08:39:39.676Z,2.67
2023-08-26T08:42:11.213Z,2.72
2023-08-26T08:44:43.502Z,2.70
2023-08-26T08:47:12.390Z,3.12
2023-08-26T08:49:43.018Z,5.10
2023-08-26T08:52:12.926Z,4.10
2023-08-26T08:54:42.422Z,5.07
2023-08-26T08:57:14.597Z,4.32
2023-08-26T08:59:44.204Z,2.80
2023-08-26T09:02:13.577Z,3.17
2023-08-26T09:04:44.576Z,3.15
2023-08-26T09:07:17.552Z,3.58
2023-08-26T09:09:56.553Z,4.35
2023-08-26T09:12:32.460Z,4.30
2023-08-26T09:15:00.811Z,4.55
2023-08-26T09:17:34.272Z,3.58
2023-08-26T09:20:04.340Z,5.32
2023-08-26T09:22:36.177Z,3.97
2023-08-26T09:25:06.843Z,3.22
2023-08-26T09:27:42.108Z,2.62
2023-08-26T09:30:10.911Z,2.72
2023-08-26T09:32:42.950Z,2.42
2023-08-26T09:35:16.662Z,2.78
2023-08-26T09:37:49.729Z,2.55
2023-08-26T09:40:24.884Z,3.10
2023-08-26T09:42:54.506Z,4.85
2023-08-26T09:45:23.185Z,3.67
2023-08-26T09:47:53.256Z,5.53
2023-08-26T09:50:34.605Z,2.90
2023-08-26T09:53:03.690Z,4.07
2023-08-26T09:55:34.161Z,4.82
2023-08-26T09:58:02.590Z,5.57
2023-08-26T10:00:35.164Z,8.32
2023-08-26T10:03:07.906Z,5.60
2023-08-26T10:05:41.495Z,6.00
2023-08-26T10:08:12.044Z,4.60
2023-08-26T10:10:54.429Z,4.93
2023-08-26T10:16:00.265Z,3.63
2023-08-26T10:18:56.212Z,4.03
2023-08-26T10:21:25.589Z,2.80
2023-08-26T10:23:54.236Z,4.03
2023-08-26T10:26:22.793Z,3.72
2023-08-26T10:28:51.924Z,7.28
2023-08-26T10:31:21.220Z,4.75
2023-08-26T10:34:15.989Z,2.87
2023-08-26T10:36:51.083Z,5.72
2023-08-26T10:39:22.912Z,3.03
2023-08-26T10:42:23.366Z,3.20
2023-08-26T10:45:00.798Z,5.60
2023-08-26T10:47:46.765Z,4.87
2023-08-26T10:50:23.933Z,6.12
2023-08-26T10:53:16.041Z,5.82
2023-08-26T10:55:44.773Z,11.40
2023-08-26T10:58:18.228Z,9.55
2023-08-26T11:00:49.992Z,10.30
2023-08-26T11:03:21.975Z,13.35
2023-08-26T11:06:12.913Z,11.88
2023-08-26T11:08:55.149Z,7.85
2023-08-26T11:11:23.748Z,6.05
2023-08-26T11:13:52.918Z,6.37
2023-08-26T11:16:23.896Z,4.25
2023-08-26T11:18:56.743Z,4.60
2023-08-26T11:21:25.675Z,5.18
2023-08-26T11:23:58.454Z,5.47
2023-08-26T11:26:27.278Z,3.53
2023-08-26T11:28:56.068Z,6.47
2023-08-26T11:31:26.557Z,11.80
2023-08-26T11:33:56.524Z,9.05
2023-08-26T11:36:24.944Z,7.68
2023-08-26T11:38:54.280Z,5.22
2023-08-26T11:41:23.746Z,3.42
2023-08-26T11:43:52.303Z,4.18
2023-08-26T11:46:21.015Z,3.37
2023-08-26T11:48:49.825Z,3.62
2023-08-26T11:51:18.048Z,4.10
2023-08-26T11:53:46.074Z,4.47
2023-08-26T11:56:14.459Z,6.43
2023-08-26T11:58:42.801Z,4.53
2023-08-26T12:01:15.088Z,3.58
2023-08-26T12:03:45.755Z,3.60
2023-08-26T12:06:16.351Z,3.12
2023-08-26T12:08:53.182Z,3.72
2023-08-26T12:11:22.400Z,5.00
2023-08-26T12:13:51.738Z,5.22
2023-08-26T12:16:20.034Z,4.18
2023-08-26T12:18:49.870Z,6.10
2023-08-26T12:21:18.874Z,5.95
2023-08-26T12:23:48.011Z,6.25
2023-08-26T12:26:16.470Z,5.43
2023-08-26T12:28:45.320Z,3.75
2023-08-26T12:31:14.735Z,3.45
2023-08-26T12:33:58.115Z,4.03
2023-08-26T12:36:30.682Z,3.47
2023-08-26T12:39:02.575Z,4.90
2023-08-26T12:44:02.759Z,7.22
2023-08-26T12:46:32.102Z,5.95
2023-08-26T12:49:01.602Z,6.05
2023-08-26T12:51:32.085Z,5.55
2023-08-26T12:54:01.522Z,7.93
2023-08-26T12:56:30.236Z,10.98
2023-08-26T12:58:58.591Z,28.20
2023-08-26T13:01:27.697Z,16.02
2023-08-26T13:03:58.709Z,16.65
2023-08-26T13:06:28.748Z,14.32
2023-08-26T13:08:57.296Z,11.00
2023-08-26T13:11:25.805Z,7.57
2023-08-26T13:13:55.089Z,6.40
2023-08-26T13:16:23.672Z,6.85
2023-08-26T13:18:52.440Z,8.15
2023-08-26T13:21:21.570Z,5.18
2023-08-26T13:23:50.163Z,5.00
2023-08-26T13:26:19.124Z,3.85
2023-08-26T13:28:48.419Z,3.85
2023-08-26T13:31:17.063Z,4.32
2023-08-26T13:33:45.968Z,4.00
2023-08-26T13:36:15.289Z,7.55
2023-08-26T13:38:43.848Z,6.43
2023-08-26T13:41:12.270Z,5.28
2023-08-26T13:43:40.920Z,3.72
2023-08-26T13:46:09.207Z,4.12
2023-08-26T13:48:37.939Z,4.80
2023-08-26T13:51:07.138Z,5.25
2023-08-26T13:53:35.901Z,4.93
2023-08-26T13:56:05.105Z,3.80
2023-08-26T13:58:34.595Z,3.90
2023-08-26T14:01:05.175Z,6.03
2023-08-26T14:03:34.892Z,4.20
2023-08-26T14:06:08.092Z,5.50
2023-08-26T14:08:37.317Z,4.07
2023-08-26T14:11:06.176Z,5.00
2023-08-26T14:13:35.298Z,3.90
2023-08-26T14:16:04.898Z,5.05
2023-08-26T14:18:33.826Z,4.45
2023-08-26T14:21:03.219Z,4.45
2023-08-26T14:23:32.063Z,4.45
2023-08-26T14:26:02.644Z,6.30
2023-08-26T14:28:31.819Z,5.28
2023-08-26T14:31:01.790Z,6.55
2023-08-26T14:33:31.082Z,16.60
2023-08-26T14:36:02.745Z,21.92
2023-08-26T14:38:32.509Z,17.62
2023-08-26T14:41:01.643Z,9.85
2023-08-26T14:43:31.520Z,15.38
2023-08-26T14:46:01.226Z,8.65
2023-08-26T14:48:34.591Z,11.88
2023-08-26T14:51:04.425Z,8.15
2023-08-26T14:53:34.117Z,6.75
2023-08-26T14:56:06.414Z,10.02
2023-08-26T14:58:36.251Z,8.30
2023-08-26T15:01:05.890Z,4.97
2023-08-26T15:03:34.965Z,7.25
2023-08-26T15:06:07.918Z,8.65
2023-08-26T15:08:37.547Z,8.18
2023-08-26T15:11:06.601Z,8.55
2023-08-26T15:13:35.720Z,6.25
2023-08-26T15:16:05.738Z,6.22
2023-08-26T15:18:36.808Z,8.27
2023-08-26T15:21:05.839Z,5.40
2023-08-26T15:23:34.451Z,8.20
2023-08-26T15:26:04.396Z,5.45
2023-08-26T15:28:33.849Z,7.95
2023-08-26T15:31:02.613Z,5.60
2023-08-26T15:33:32.126Z,7.65
2023-08-26T15:36:01.357Z,7.10
2023-08-26T15:38:30.310Z,7.97
2023-08-26T15:41:00.753Z,6.45
2023-08-26T15:43:32.321Z,7.05
2023-08-26T15:46:01.816Z,9.52
2023-08-26T15:48:31.387Z,6.87
2023-08-26T15:51:00.430Z,9.07
2023-08-26T15:53:29.444Z,8.00
2023-08-26T15:55:58.935Z,6.87
2023-08-26T15:58:28.290Z,7.82
2023-08-26T16:00:57.488Z,6.60
2023-08-26T16:03:27.225Z,7.18
2023-08-26T16:06:02.287Z,15.85
2023-08-26T16:08:31.769Z,14.80
2023-08-26T16:11:00.744Z,12.45
2023-08-26T16:13:29.936Z,3.10
2023-08-26T16:15:59.653Z,9.90
2023-08-26T16:18:28.564Z,11.77
2023-08-26T16:20:57.595Z,13.20
2023-08-26T16:23:26.649Z,14.02
2023-08-26T16:25:55.578Z,11.38
2023-08-26T16:28:25.785Z,14.30
2023-08-26T16:30:55.180Z,11.98
2023-08-26T16:33:24.466Z,12.73
2023-08-26T16:35:53.972Z,8.18
2023-08-26T16:38:23.663Z,14.63
2023-08-26T16:40:56.247Z,9.52
2023-08-26T16:43:28.639Z,11.25
2023-08-26T16:45:57.817Z,5.93
2023-08-26T16:48:27.668Z,7.12
2023-08-26T16:50:58.847Z,8.50
2023-08-26T16:53:28.463Z,6.97
2023-08-26T16:55:57.264Z,9.88
2023-08-26T16:58:26.571Z,10.23
2023-08-26T17:00:56.098Z,12.20
2023-08-26T17:03:26.852Z,8.02
2023-08-26T17:05:59.930Z,10.85
2023-08-26T17:08:33.696Z,7.93
2023-08-26T17:11:15.428Z,10.93
2023-08-26T17:13:45.167Z,12.65
2023-08-26T17:16:17.466Z,15.60
2023-08-26T17:18:46.945Z,12.60
2023-08-26T17:21:17.466Z,9.88
2023-08-26T17:23:48.209Z,10.07
2023-08-26T17:26:20.971Z,11.00
2023-08-26T17:28:52.489Z,13.15
2023-08-26T17:31:21.661Z,9.68
2023-08-26T17:33:51.855Z,12.75
2023-08-26T17:36:24.454Z,12.20
2023-08-26T17:38:57.343Z,14.48
2023-08-26T17:41:27.813Z,15.52
2023-08-26T17:44:01.186Z,13.62
2023-08-26T17:49:02.212Z,14.85
2023-08-26T17:51:34.248Z,11.15
2023-08-26T17:54:04.278Z,13.02
2023-08-26T17:56:33.589Z,7.15
2023-08-26T17:59:09.581Z,12.35
2023-08-26T18:01:39.248Z,11.02
2023-08-26T18:04:09.775Z,8.68
2023-08-26T18:06:53.560Z,5.47
2023-08-26T18:09:24.117Z,11.77
2023-08-26T18:11:57.260Z,8.60
2023-08-26T18:14:28.075Z,6.12
2023-08-26T18:17:02.194Z,13.10
2023-08-26T18:19:37.972Z,11.32
2023-08-26T18:22:08.412Z,10.95
2023-08-26T18:24:45.972Z,11.02
2023-08-26T18:27:15.699Z,8.55
2023-08-26T18:29:46.527Z,10.23
2023-08-26T18:32:17.584Z,8.65
2023-08-26T18:34:47.772Z,9.20
2023-08-26T18:37:17.159Z,5.50
2023-08-26T18:39:50.724Z,5.03
2023-08-26T18:42:27.177Z,12.52
2023-08-26T18:44:57.541Z,14.48
2023-08-26T18:47:29.441Z,13.38
2023-08-26T18:49:59.726Z,10.23
2023-08-26T18:52:37.897Z,9.77
2023-08-26T18:55:15.149Z,15.95
2023-08-26T18:57:49.848Z,12.63
2023-08-26T19:00:23.285Z,17.00
2023-08-26T19:02:57.445Z,15.77
2023-08-26T19:05:29.023Z,15.40
2023-08-26T19:08:03.604Z,14.50
2023-08-26T19:10:34.891Z,14.60
2023-08-26T19:13:10.977Z,11.80
2023-08-26T19:15:44.865Z,15.45
2023-08-26T19:18:39.206Z,15.45
2023-08-26T19:21:09.797Z,20.02
2023-08-26T19:26:22.995Z,7.55
2023-08-26T19:28:55.815Z,14.23
2023-08-26T19:31:25.321Z,16.98
2023-08-26T19:33:55.312Z,12.98
2023-08-26T19:36:27.502Z,20.98
2023-08-26T19:38:58.879Z,21.08
2023-08-26T19:41:28.568Z,22.73
2023-08-26T19:43:58.637Z,25.80
2023-08-26T19:46:28.119Z,68.37
2023-08-26T19:48:58.303Z,79.45
2023-08-26T19:51:28.041Z,61.15
2023-08-26T19:53:59.666Z,88.72
2023-08-26T19:56:29.486Z,44.83
2023-08-26T19:59:00.029Z,37.38
2023-08-26T20:01:31.136Z,49.13
2023-08-26T20:04:00.891Z,38.58
2023-08-26T20:06:30.149Z,31.00
2023-08-26T20:08:59.396Z,36.38
2023-08-26T20:11:29.018Z,28.52
2023-08-26T20:13:58.979Z,43.63
2023-08-26T20:16:31.561Z,51.75
2023-08-26T20:19:00.626Z,36.75
2023-08-26T20:21:30.243Z,32.17
2023-08-26T20:24:01.588Z,34.75
2023-08-26T20:26:38.000Z,30.05
2023-08-26T20:29:09.975Z,44.25
2023-08-26T20:31:39.334Z,32.40
2023-08-26T20:34:07.625Z,30.12
2023-08-26T20:36:45.439Z,46.35
2023-08-26T20:39:14.842Z,26.90
2023-08-26T20:41:46.305Z,28.38
2023-08-26T20:44:14.826Z,25.73
2023-08-26T20:46:43.061Z,27.48
2023-08-26T20:49:17.495Z,31.35
2023-08-26T20:51:46.072Z,22.90
2023-08-26T20:54:14.404Z,31.48
2023-08-26T20:56:42.720Z,48.55
2023-08-26T20:59:11.221Z,34.25
2023-08-26T21:01:39.189Z,28.27
2023-08-26T21:04:07.871Z,39.08
2023-08-26T21:06:36.270Z,37.40
2023-08-26T21:09:05.857Z,51.63
2023-08-26T21:11:34.898Z,35.17
2023-08-26T21:14:03.653Z,29.05
2023-08-26T21:16:32.214Z,31.17
2023-08-26T21:19:01.081Z,29.00
2023-08-26T21:21:29.786Z,43.15
2023-08-26T21:24:01.104Z,26.27
2023-08-26T21:26:29.917Z,32.85
2023-08-26T21:28:58.234Z,26.17
2023-08-26T21:31:26.501Z,20.37
2023-08-26T21:33:54.946Z,28.30
2023-08-26T21:36:24.496Z,21.30
2023-08-26T21:38:52.982Z,18.37
2023-08-26T21:41:21.502Z,23.30
2023-08-26T21:43:49.515Z,25.90
2023-08-26T21:46:17.643Z,24.58
2023-08-26T21:48:46.127Z,22.20
2023-08-26T21:51:14.150Z,20.58
2023-08-26T21:53:42.190Z,21.27
2023-08-26T21:56:10.785Z,19.77
2023-08-26T21:58:38.633Z,18.62
2023-08-26T22:01:06.661Z,20.58
2023-08-26T22:03:34.855Z,21.17
2023-08-26T22:06:03.133Z,17.20
2023-08-26T22:08:31.212Z,17.15
2023-08-26T22:10:59.769Z,17.60
2023-08-26T22:13:28.248Z,19.37
2023-08-26T22:15:57.033Z,15.98
2023-08-26T22:18:26.277Z,16.65
2023-08-26T22:20:55.405Z,16.45
2023-08-26T22:23:25.129Z,15.85
2023-08-26T22:25:53.856Z,16.20
2023-08-26T22:28:47.509Z,16.50
2023-08-26T22:31:16.801Z,15.25
2023-08-26T22:33:44.615Z,21.77
2023-08-26T22:36:12.790Z,20.52
2023-08-26T22:38:41.065Z,19.25
2023-08-26T22:41:08.955Z,22.08
2023-08-26T22:43:36.887Z,45.40
2023-08-26T22:46:05.125Z,27.95
2023-08-26T22:48:32.957Z,20.25
2023-08-26T22:51:00.763Z,22.87
2023-08-26T22:53:28.947Z,24.25
2023-08-26T22:55:56.902Z,24.65
2023-08-26T22:58:24.720Z,29.83
2023-08-26T23:00:53.022Z,32.10
2023-08-26T23:03:21.194Z,29.95
2023-08-26T23:05:49.141Z,27.77
2023-08-26T23:08:17.649Z,25.52
2023-08-26T23:10:45.573Z,21.23
2023-08-26T23:13:13.364Z,35.78
2023-08-26T23:15:42.538Z,22.98
2023-08-26T23:18:10.592Z,28.85
2023-08-26T23:20:38.490Z,23.52
2023-08-26T23:23:06.930Z,41.47
2023-08-26T23:25:34.945Z,31.58
2023-08-26T23:28:02.812Z,23.17
2023-08-26T23:30:30.943Z,24.77
2023-08-26T23:32:59.200Z,21.12
2023-08-26T23:35:27.567Z,20.73
2023-08-26T23:37:55.906Z,19.65
2023-08-26T23:40:23.931Z,20.20
2023-08-26T23:42:51.945Z,22.95
2023-08-26T23:45:20.306Z,19.85
2023-08-26T23:47:48.315Z,22.10
2023-08-26T23:50:16.523Z,24.80
2023-08-26T23:52:44.826Z,21.48
2023-08-26T23:55:12.706Z,19.42
2023-08-26T23:57:40.620Z,17.33
